Time;durP1;ratioP1;P1;durP2;ratioP2;P2;SDS_P1;SDS_P2;PMS_P1;PMS_P2;Temp;Humidity;BMP_temperature;BMP_pressure;BME280_temperature;BME280_humidity;BME280_pressure;Samples;Min_cycle;Max_cycle;Signal;HPM_P1;HPM_P2
2023/12/19 00:00:56;;;;;;;66.82;51.83;;;;;;;;;;5022529;28;20961;-71
2023/12/19 00:03:21;;;;;;;46.60;39.83;;;;;;;;;;5022128;28;20048;-73
2023/12/19 00:05:47;;;;;;;37.95;32.55;;;;;;;;;;5010163;28;20048;-72
2023/12/19 00:08:12;;;;;;;37.90;31.70;;;;;;;;;;5021273;28;20049;-71
2023/12/19 00:10:38;;;;;;;52.08;39.53;;;;;;;;;;5022225;28;20325;-71
2023/12/19 00:13:03;;;;;;;82.85;60.97;;;;;;;;;;5005706;28;20091;-71
2023/12/19 00:15:28;;;;;;;109.03;81.63;;;;;;;;;;5016591;28;20764;-73
2023/12/19 00:17:54;;;;;;;151.55;115.05;;;;;;;;;;5020781;28;20041;-73
2023/12/19 00:20:19;;;;;;;125.10;92.40;;;;;;;;;;5021314;28;20029;-74
2023/12/19 00:22:45;;;;;;;79.80;61.03;;;;;;;;;;5021224;28;20037;-73
2023/12/19 00:25:11;;;;;;;51.30;39.13;;;;;;;;;;5007711;28;20141;-73
2023/12/19 00:27:36;;;;;;;47.92;37.17;;;;;;;;;;5022319;28;20371;-72
2023/12/19 00:30:02;;;;;;;47.15;36.03;;;;;;;;;;5008540;28;20048;-71
2023/12/19 00:32:27;;;;;;;56.25;44.00;;;;;;;;;;5014890;28;20061;-73
2023/12/19 00:34:53;;;;;;;39.80;33.83;;;;;;;;;;5018334;28;20413;-73
2023/12/19 00:37:19;;;;;;;42.83;35.58;;;;;;;;;;5002333;28;20033;-74
2023/12/19 00:39:44;;;;;;;38.17;33.90;;;;;;;;;;5015858;28;20030;-71
2023/12/19 00:42:10;;;;;;;52.03;41.72;;;;;;;;;;5022047;28;20024;-74
2023/12/19 00:44:36;;;;;;;164.68;126.30;;;;;;;;;;5010245;28;20464;-74
2023/12/19 00:47:02;;;;;;;169.60;128.70;;;;;;;;;;5021683;28;20737;-72
2023/12/19 00:49:27;;;;;;;221.52;160.95;;;;;;;;;;5006291;28;20437;-71
2023/12/19 00:51:52;;;;;;;257.90;192.15;;;;;;;;;;5022004;28;20096;-71
2023/12/19 00:54:18;;;;;;;245.00;180.52;;;;;;;;;;5007377;28;20636;-72
2023/12/19 00:56:43;;;;;;;148.98;112.45;;;;;;;;;;5021705;28;20021;-72
2023/12/19 00:59:09;;;;;;;216.48;155.48;;;;;;;;;;5020036;28;20029;-73
2023/12/19 01:01:34;;;;;;;262.88;185.93;;;;;;;;;;5009274;28;20041;-72
2023/12/19 01:04:00;;;;;;;251.65;178.85;;;;;;;;;;5022026;28;20180;-74
2023/12/19 01:06:25;;;;;;;241.80;179.07;;;;;;;;;;5021397;28;20032;-73
2023/12/19 01:08:50;;;;;;;186.85;130.77;;;;;;;;;;5021214;28;20041;-71
2023/12/19 01:11:16;;;;;;;219.27;149.73;;;;;;;;;;5020625;28;20038;-71
2023/12/19 01:13:41;;;;;;;144.57;102.50;;;;;;;;;;5021974;28;20450;-73
2023/12/19 01:16:07;;;;;;;101.03;74.50;;;;;;;;;;5021105;28;20028;-72
2023/12/19 01:18:33;;;;;;;85.68;62.30;;;;;;;;;;5020403;28;20021;-72
2023/12/19 01:20:58;;;;;;;87.82;64.00;;;;;;;;;;5010320;28;20040;-73
2023/12/19 01:23:25;;;;;;;97.57;75.63;;;;;;;;;;5020951;28;20191;-74
2023/12/19 01:25:50;;;;;;;60.63;44.45;;;;;;;;;;5021667;28;20056;-73
2023/12/19 01:28:16;;;;;;;49.80;38.72;;;;;;;;;;5014513;28;20057;-72
2023/12/19 01:30:42;;;;;;;39.50;32.42;;;;;;;;;;5016200;28;20465;-73
2023/12/19 01:33:08;;;;;;;64.95;48.80;;;;;;;;;;5021482;28;20452;-73
2023/12/19 01:35:33;;;;;;;41.35;34.55;;;;;;;;;;5020358;28;20053;-73
2023/12/19 01:37:59;;;;;;;41.45;33.33;;;;;;;;;;5010383;28;20071;-72
2023/12/19 01:40:26;;;;;;;66.28;46.13;;;;;;;;;;5019914;28;20044;-71
2023/12/19 01:42:51;;;;;;;164.23;108.93;;;;;;;;;;5020878;28;20429;-72
2023/12/19 01:45:19;;;;;;;150.10;105.15;;;;;;;;;;5020451;28;20118;-71
2023/12/19 01:47:44;;;;;;;110.30;75.47;;;;;;;;;;5020635;28;20033;-71
2023/12/19 01:50:14;;;;;;;140.00;98.78;;;;;;;;;;5005158;28;20044;-72
2023/12/19 01:53:05;;;;;;;153.73;113.22;;;;;;;;;;5020527;28;20034;-73
2023/12/19 01:55:31;;;;;;;112.85;82.85;;;;;;;;;;5015073;28;20040;-73
2023/12/19 01:57:56;;;;;;;127.00;94.22;;;;;;;;;;5020216;28;20021;-74
2023/12/19 02:00:22;;;;;;;46.58;37.97;;;;;;;;;;5019011;28;20036;-71
2023/12/19 02:02:50;;;;;;;134.23;109.32;;;;;;;;;;5019824;28;20068;-74
2023/12/19 02:05:15;;;;;;;133.18;112.63;;;;;;;;;;5019801;28;20951;-72
2023/12/19 02:07:41;;;;;;;83.57;72.85;;;;;;;;;;5019918;28;20033;-73
2023/12/19 02:10:06;;;;;;;71.07;63.38;;;;;;;;;;5020176;28;20088;-75
2023/12/19 02:12:32;;;;;;;38.42;34.55;;;;;;;;;;5020762;28;20053;-74
2023/12/19 02:14:57;;;;;;;24.58;22.13;;;;;;;;;;5017845;28;20049;-73
2023/12/19 02:17:23;;;;;;;21.50;18.48;;;;;;;;;;5004546;28;20457;-74
2023/12/19 02:19:49;;;;;;;29.85;25.35;;;;;;;;;;5010413;28;20033;-72
2023/12/19 02:22:15;;;;;;;32.65;29.02;;;;;;;;;;5015014;28;20136;-74
2023/12/19 02:24:41;;;;;;;138.85;99.22;;;;;;;;;;5019808;28;20040;-73
2023/12/19 02:27:07;;;;;;;146.55;103.35;;;;;;;;;;5008651;28;20088;-71
2023/12/19 02:29:33;;;;;;;90.55;68.70;;;;;;;;;;5019306;28;20121;-73
2023/12/19 02:31:58;;;;;;;108.80;80.28;;;;;;;;;;5019925;28;20069;-72
2023/12/19 02:34:24;;;;;;;88.65;68.43;;;;;;;;;;5019709;28;20042;-73
2023/12/19 02:36:49;;;;;;;129.02;107.18;;;;;;;;;;5018226;28;20022;-72
2023/12/19 02:39:14;;;;;;;92.75;72.63;;;;;;;;;;5006807;28;21709;-75
2023/12/19 02:41:40;;;;;;;155.60;124.47;;;;;;;;;;5000955;28;20133;-71
2023/12/19 02:44:05;;;;;;;116.10;91.38;;;;;;;;;;5001040;28;20452;-73
2023/12/19 02:46:32;;;;;;;96.18;75.72;;;;;;;;;;5015778;28;20030;-72
2023/12/19 02:48:57;;;;;;;145.57;110.13;;;;;;;;;;5013673;28;20108;-72
2023/12/19 02:51:23;;;;;;;79.70;62.92;;;;;;;;;;5006772;28;20116;-73
2023/12/19 02:53:48;;;;;;;75.88;62.00;;;;;;;;;;5019190;28;20485;-73
2023/12/19 02:56:13;;;;;;;51.00;43.75;;;;;;;;;;5008125;28;20057;-75
2023/12/19 02:58:39;;;;;;;127.18;94.57;;;;;;;;;;5007513;28;20072;-74
2023/12/19 03:01:07;;;;;;;116.50;87.70;;;;;;;;;;5019211;28;20488;-74
2023/12/19 03:03:33;;;;;;;112.45;83.70;;;;;;;;;;5019423;28;20441;-73
2023/12/19 03:05:59;;;;;;;126.13;96.28;;;;;;;;;;5018875;28;20081;-72
2023/12/19 03:08:24;;;;;;;103.15;80.03;;;;;;;;;;5010010;28;21234;-71
2023/12/19 03:10:49;;;;;;;115.72;87.65;;;;;;;;;;5016139;28;20303;-73
2023/12/19 03:13:15;;;;;;;127.78;97.30;;;;;;;;;;5017801;28;20056;-75
2023/12/19 03:15:40;;;;;;;107.60;82.88;;;;;;;;;;5020467;28;20065;-74
2023/12/19 03:18:05;;;;;;;100.10;75.57;;;;;;;;;;5018764;28;20064;-73
2023/12/19 03:20:31;;;;;;;74.97;55.92;;;;;;;;;;5018400;28;20087;-73
2023/12/19 03:22:56;;;;;;;41.88;36.38;;;;;;;;;;5018986;28;20022;-74
2023/12/19 03:25:21;;;;;;;64.25;51.03;;;;;;;;;;5016414;28;20112;-74
2023/12/19 03:27:47;;;;;;;157.88;118.75;;;;;;;;;;5009926;28;20448;-73
2023/12/19 03:30:12;;;;;;;169.98;123.38;;;;;;;;;;5019280;28;20318;-72
2023/12/19 03:32:37;;;;;;;167.90;120.95;;;;;;;;;;5021700;28;20442;-73
2023/12/19 03:35:03;;;;;;;58.42;44.40;;;;;;;;;;5022287;28;20061;-73
2023/12/19 03:37:28;;;;;;;33.65;27.02;;;;;;;;;;5022829;28;20022;-73
2023/12/19 03:39:54;;;;;;;25.90;22.17;;;;;;;;;;5022669;28;20033;-73
2023/12/19 03:42:19;;;;;;;42.47;32.70;;;;;;;;;;5020680;28;20075;-73
2023/12/19 03:44:44;;;;;;;36.03;29.58;;;;;;;;;;5015042;28;20425;-74
2023/12/19 03:47:13;;;;;;;90.68;64.63;;;;;;;;;;5022896;28;20057;-74
2023/12/19 03:49:38;;;;;;;29.92;22.20;;;;;;;;;;5022783;28;20040;-73
2023/12/19 03:52:03;;;;;;;50.60;40.63;;;;;;;;;;5013584;28;20361;-73
2023/12/19 03:54:29;;;;;;;22.90;18.92;;;;;;;;;;5022388;28;20096;-73
2023/12/19 03:56:55;;;;;;;39.83;29.55;;;;;;;;;;5023017;28;20139;-74
2023/12/19 03:59:20;;;;;;;54.35;40.10;;;;;;;;;;5009376;28;20032;-74
2023/12/19 04:01:48;;;;;;;31.30;27.98;;;;;;;;;;5003231;28;20053;-74
2023/12/19 04:04:13;;;;;;;52.80;46.00;;;;;;;;;;5021432;28;20517;-72
2023/12/19 04:06:39;;;;;;;61.78;52.13;;;;;;;;;;5007622;28;20075;-73
2023/12/19 04:09:06;;;;;;;31.52;28.33;;;;;;;;;;5022682;28;20420;-72
2023/12/19 04:11:31;;;;;;;189.23;139.10;;;;;;;;;;5022780;28;20036;-73
2023/12/19 04:13:56;;;;;;;64.93;55.65;;;;;;;;;;5023031;28;20033;-75
2023/12/19 04:16:22;;;;;;;27.25;23.58;;;;;;;;;;5019611;28;20029;-72
2023/12/19 04:18:47;;;;;;;26.38;23.65;;;;;;;;;;5019468;28;20155;-73
2023/12/19 04:21:12;;;;;;;81.65;65.07;;;;;;;;;;5008619;28;20060;-73
2023/12/19 04:23:38;;;;;;;30.65;26.90;;;;;;;;;;5023025;28;20060;-72
2023/12/19 04:26:03;;;;;;;32.53;26.55;;;;;;;;;;5021143;28;20083;-72
2023/12/19 04:28:28;;;;;;;36.55;29.80;;;;;;;;;;5022699;28;20330;-73
2023/12/19 04:30:54;;;;;;;38.10;34.00;;;;;;;;;;5022313;28;20356;-74
2023/12/19 04:33:19;;;;;;;92.18;77.32;;;;;;;;;;5023810;28;20068;-73
2023/12/19 04:35:44;;;;;;;60.72;49.67;;;;;;;;;;5022762;28;20080;-73
2023/12/19 04:38:10;;;;;;;95.07;82.50;;;;;;;;;;5021899;28;20037;-74
2023/12/19 04:40:35;;;;;;;46.80;41.25;;;;;;;;;;5022082;28;20033;-75
2023/12/19 04:43:00;;;;;;;128.00;105.22;;;;;;;;;;5021354;28;20512;-73
2023/12/19 04:45:26;;;;;;;55.72;47.35;;;;;;;;;;5021102;28;20030;-73
2023/12/19 04:47:51;;;;;;;49.55;41.97;;;;;;;;;;5017325;28;20044;-74
2023/12/19 04:50:17;;;;;;;133.90;116.07;;;;;;;;;;5008548;28;20037;-74
2023/12/19 04:52:42;;;;;;;116.10;94.65;;;;;;;;;;5007969;28;20148;-73
2023/12/19 04:55:08;;;;;;;145.13;126.30;;;;;;;;;;5001059;28;20079;-74
2023/12/19 04:57:33;;;;;;;85.95;73.93;;;;;;;;;;5007635;28;20029;-73
2023/12/19 04:59:58;;;;;;;77.25;68.88;;;;;;;;;;5008061;28;20021;-74
2023/12/19 05:02:24;;;;;;;121.53;103.97;;;;;;;;;;5007996;28;20029;-73
2023/12/19 05:04:49;;;;;;;93.47;79.43;;;;;;;;;;5000621;28;20322;-72
2023/12/19 05:07:14;;;;;;;118.75;105.32;;;;;;;;;;5017174;28;20142;-73
2023/12/19 05:09:40;;;;;;;98.35;87.57;;;;;;;;;;5019887;28;20049;-72
2023/12/19 05:12:05;;;;;;;38.55;33.78;;;;;;;;;;5021310;28;20357;-74
2023/12/19 05:14:30;;;;;;;70.63;59.20;;;;;;;;;;5008468;28;20131;-73
2023/12/19 05:16:56;;;;;;;256.67;200.63;;;;;;;;;;5018222;28;20034;-74
2023/12/19 05:19:21;;;;;;;221.13;169.88;;;;;;;;;;5003633;28;20386;-72
2023/12/19 05:21:46;;;;;;;149.13;114.97;;;;;;;;;;5022087;28;20032;-72
2023/12/19 05:24:12;;;;;;;916.47;659.15;;;;;;;;;;5005030;28;20025;-71
2023/12/19 05:26:37;;;;;;;418.25;290.67;;;;;;;;;;5021886;28;20052;-73
2023/12/19 05:29:02;;;;;;;195.95;153.48;;;;;;;;;;5010710;28;20030;-74
2023/12/19 05:31:28;;;;;;;291.35;221.50;;;;;;;;;;5019893;28;20163;-72
2023/12/19 05:33:54;;;;;;;151.20;113.40;;;;;;;;;;5021322;28;20030;-73
2023/12/19 05:36:20;;;;;;;72.60;59.00;;;;;;;;;;5021107;28;20072;-73
2023/12/19 05:38:46;;;;;;;132.30;84.53;;;;;;;;;;5010376;28;20177;-73
2023/12/19 05:41:14;;;;;;;118.85;92.13;;;;;;;;;;5004397;28;20560;-73
2023/12/19 05:43:40;;;;;;;80.03;57.05;;;;;;;;;;5021255;28;20026;-73
2023/12/19 05:46:05;;;;;;;152.02;113.60;;;;;;;;;;5020757;28;20029;-73
2023/12/19 05:48:30;;;;;;;501.95;404.08;;;;;;;;;;5021542;28;20024;-73
2023/12/19 05:50:56;;;;;;;249.57;195.05;;;;;;;;;;5022889;28;20033;-73
2023/12/19 05:53:21;;;;;;;193.77;151.32;;;;;;;;;;5021323;28;20046;-74
2023/12/19 05:55:47;;;;;;;226.30;171.00;;;;;;;;;;5012547;28;20033;-74
2023/12/19 05:58:13;;;;;;;203.85;157.70;;;;;;;;;;5008301;28;20022;-74
2023/12/19 06:00:38;;;;;;;378.40;282.90;;;;;;;;;;5007796;28;20041;-74
2023/12/19 06:03:04;;;;;;;243.45;193.52;;;;;;;;;;5011034;28;20025;-74
2023/12/19 06:05:29;;;;;;;260.17;193.65;;;;;;;;;;5021031;28;20037;-76
2023/12/19 06:07:54;;;;;;;224.27;176.93;;;;;;;;;;5019907;28;20045;-74
2023/12/19 06:10:20;;;;;;;363.02;269.50;;;;;;;;;;5021035;28;20025;-75
2023/12/19 06:12:46;;;;;;;99.90;75.50;;;;;;;;;;5020289;28;20029;-74
2023/12/19 06:15:13;;;;;;;262.10;198.57;;;;;;;;;;5020065;28;20083;-76
2023/12/19 06:17:46;;;;;;;179.93;138.98;;;;;;;;;;5020497;28;20196;-75
2023/12/19 06:20:11;;;;;;;116.63;94.18;;;;;;;;;;5020281;28;20437;-75
2023/12/19 06:22:37;;;;;;;243.45;194.15;;;;;;;;;;5020514;28;20022;-76
2023/12/19 06:25:03;;;;;;;239.38;197.20;;;;;;;;;;5021335;28;20360;-76
2023/12/19 06:27:28;;;;;;;845.03;623.40;;;;;;;;;;5019172;28;20029;-72
2023/12/19 06:29:56;;;;;;;300.25;253.55;;;;;;;;;;5020387;28;21099;-73
2023/12/19 06:32:22;;;;;;;322.70;265.25;;;;;;;;;;5019349;28;20037;-71
2023/12/19 06:34:47;;;;;;;380.25;304.02;;;;;;;;;;5020121;28;20113;-76
2023/12/19 06:37:12;;;;;;;491.33;364.52;;;;;;;;;;5019661;28;20064;-75
2023/12/19 06:39:39;;;;;;;382.48;262.15;;;;;;;;;;5019531;28;20125;-72
2023/12/19 06:42:05;;;;;;;248.52;177.35;;;;;;;;;;5009589;28;20755;-72
2023/12/19 06:44:30;;;;;;;171.15;132.27;;;;;;;;;;5019028;28;20373;-72
2023/12/19 06:46:56;;;;;;;145.77;113.57;;;;;;;;;;5020922;28;20024;-72
2023/12/19 06:49:22;;;;;;;38.97;32.47;;;;;;;;;;5020872;28;20412;-74
2023/12/19 06:51:48;;;;;;;35.55;29.63;;;;;;;;;;5014464;28;20109;-75
2023/12/19 06:54:13;;;;;;;38.22;31.90;;;;;;;;;;5007797;28;20464;-73
2023/12/19 06:56:39;;;;;;;45.30;34.65;;;;;;;;;;5016909;28;20033;-72
2023/12/19 06:59:05;;;;;;;34.00;27.88;;;;;;;;;;5009961;28;20037;-72
2023/12/19 07:01:31;;;;;;;32.47;24.30;;;;;;;;;;5019592;28;20408;-72
2023/12/19 07:03:56;;;;;;;28.33;22.35;;;;;;;;;;5020514;28;20017;-72
2023/12/19 07:06:22;;;;;;;36.65;29.90;;;;;;;;;;5013594;28;20021;-72
2023/12/19 07:08:47;;;;;;;30.70;25.50;;;;;;;;;;5020612;28;20357;-73
2023/12/19 07:11:14;;;;;;;37.08;30.70;;;;;;;;;;5008611;28;20036;-73
2023/12/19 07:13:40;;;;;;;146.18;113.95;;;;;;;;;;5007555;28;20033;-73
2023/12/19 07:16:06;;;;;;;80.43;65.43;;;;;;;;;;5007534;28;20036;-73
2023/12/19 07:18:31;;;;;;;44.45;39.65;;;;;;;;;;5008363;28;20025;-75
2023/12/19 07:20:56;;;;;;;31.40;28.15;;;;;;;;;;5007825;28;20039;-73
2023/12/19 07:23:22;;;;;;;100.90;83.45;;;;;;;;;;5007526;28;20037;-73
2023/12/19 07:25:47;;;;;;;402.02;294.40;;;;;;;;;;5008137;28;20104;-76
2023/12/19 07:28:13;;;;;;;175.15;131.70;;;;;;;;;;5009251;28;20049;-73
2023/12/19 07:30:39;;;;;;;397.25;307.42;;;;;;;;;;5013415;28;20040;-72
2023/12/19 07:33:04;;;;;;;185.52;165.57;;;;;;;;;;5022374;28;21859;-72
2023/12/19 07:35:29;;;;;;;53.42;47.67;;;;;;;;;;5022739;28;20021;-77
2023/12/19 07:37:55;;;;;;;24.35;21.75;;;;;;;;;;5023417;28;20075;-73
2023/12/19 07:40:20;;;;;;;75.85;67.70;;;;;;;;;;5021504;28;20109;-72
2023/12/19 07:42:46;;;;;;;106.38;95.03;;;;;;;;;;5024528;28;20111;-73
2023/12/19 07:45:11;;;;;;;30.73;27.33;;;;;;;;;;5023820;28;20072;-72
2023/12/19 07:47:36;;;;;;;18.27;15.60;;;;;;;;;;5024342;28;20030;-73
2023/12/19 07:50:02;;;;;;;79.30;66.47;;;;;;;;;;5023986;28;20022;-73
2023/12/19 07:52:28;;;;;;;76.47;63.10;;;;;;;;;;5024329;28;20063;-73
2023/12/19 07:54:54;;;;;;;41.60;33.25;;;;;;;;;;5007847;28;20496;-73
2023/12/19 07:57:19;;;;;;;222.07;173.13;;;;;;;;;;5014658;28;20025;-73
2023/12/19 07:59:44;;;;;;;76.93;63.08;;;;;;;;;;5023797;28;20079;-74
2023/12/19 08:02:11;;;;;;;36.63;29.40;;;;;;;;;;5023786;28;20087;-72
2023/12/19 08:04:36;;;;;;;43.17;35.70;;;;;;;;;;5024115;28;20456;-72
2023/12/19 08:07:03;;;;;;;25.63;21.30;;;;;;;;;;5023191;28;20025;-73
2023/12/19 08:09:29;;;;;;;37.20;26.77;;;;;;;;;;5023640;28;20467;-73
2023/12/19 08:11:56;;;;;;;36.80;27.27;;;;;;;;;;5023349;28;21481;-73
2023/12/19 08:14:22;;;;;;;26.55;21.77;;;;;;;;;;5022910;28;20506;-74
2023/12/19 08:16:51;;;;;;;91.00;70.90;;;;;;;;;;5012391;28;20037;-74
2023/12/19 08:19:17;;;;;;;;;;;;;;;;;;4969464;28;20037;-75
2023/12/19 08:21:48;;;;;;;60.20;47.83;;;;;;;;;;5023051;28;19909;-74
2023/12/19 08:24:14;;;;;;;54.75;43.05;;;;;;;;;;5022970;28;20026;-73
2023/12/19 08:26:39;;;;;;;52.25;42.03;;;;;;;;;;5022991;28;20029;-73
2023/12/19 08:29:04;;;;;;;52.60;42.83;;;;;;;;;;5023215;28;20033;-73
2023/12/19 08:31:30;;;;;;;39.90;33.33;;;;;;;;;;5023837;28;20060;-72
2023/12/19 08:33:55;;;;;;;53.38;42.20;;;;;;;;;;5006985;28;20787;-73
2023/12/19 08:36:20;;;;;;;29.25;26.13;;;;;;;;;;5012242;28;20348;-73
2023/12/19 08:38:46;;;;;;;53.92;42.10;;;;;;;;;;5022615;28;20139;-73
2023/12/19 08:41:12;;;;;;;32.95;26.75;;;;;;;;;;5023787;28;20038;-73
2023/12/19 08:43:37;;;;;;;17.17;15.20;;;;;;;;;;5022880;28;20034;-74
2023/12/19 08:46:02;;;;;;;58.88;44.63;;;;;;;;;;5027026;28;20067;-75
2023/12/19 08:48:28;;;;;;;28.10;23.35;;;;;;;;;;5023167;28;20116;-73
2023/12/19 08:50:53;;;;;;;68.47;48.10;;;;;;;;;;5023575;28;20036;-72
2023/12/19 08:53:19;;;;;;;31.90;24.40;;;;;;;;;;5023163;28;20068;-73
2023/12/19 08:55:46;;;;;;;19.90;15.93;;;;;;;;;;5011923;28;20033;-73
2023/12/19 08:58:12;;;;;;;30.15;24.83;;;;;;;;;;5014643;28;20021;-72
2023/12/19 09:00:37;;;;;;;29.45;24.15;;;;;;;;;;5021452;28;20037;-73
2023/12/19 09:03:05;;;;;;;40.35;31.67;;;;;;;;;;5010029;28;20112;-72
2023/12/19 09:05:30;;;;;;;22.08;18.88;;;;;;;;;;5020355;28;20061;-73
2023/12/19 09:07:56;;;;;;;18.05;16.13;;;;;;;;;;5015688;28;20624;-73
2023/12/19 09:10:21;;;;;;;32.40;24.73;;;;;;;;;;5014901;28;20091;-77
2023/12/19 09:12:46;;;;;;;19.25;17.15;;;;;;;;;;5022670;28;20041;-73
2023/12/19 09:15:12;;;;;;;26.02;21.90;;;;;;;;;;5022404;28;20512;-72
2023/12/19 09:17:38;;;;;;;36.00;30.33;;;;;;;;;;5018856;28;20037;-76
2023/12/19 09:20:05;;;;;;;31.58;25.77;;;;;;;;;;5007521;28;20037;-73
2023/12/19 09:22:30;;;;;;;26.77;23.20;;;;;;;;;;5011963;28;20025;-72
2023/12/19 09:24:55;;;;;;;23.85;21.38;;;;;;;;;;5007630;28;20451;-75
2023/12/19 09:27:21;;;;;;;25.23;22.52;;;;;;;;;;5004253;28;20081;-72
2023/12/19 09:29:46;;;;;;;21.17;18.95;;;;;;;;;;5006264;28;20032;-74
2023/12/19 09:32:12;;;;;;;23.67;20.90;;;;;;;;;;5006574;28;20033;-73
2023/12/19 09:34:38;;;;;;;34.42;30.70;;;;;;;;;;5005399;28;20099;-74
2023/12/19 09:37:04;;;;;;;27.17;23.88;;;;;;;;;;5005326;28;20029;-76
2023/12/19 09:39:29;;;;;;;18.08;16.17;;;;;;;;;;5012525;28;20063;-73
2023/12/19 09:41:56;;;;;;;14.38;12.98;;;;;;;;;;5010987;28;20120;-74
2023/12/19 09:44:22;;;;;;;10.93;9.82;;;;;;;;;;5019027;28;20028;-72
2023/12/19 09:46:49;;;;;;;41.92;32.72;;;;;;;;;;5019864;28;20026;-76
2023/12/19 09:49:16;;;;;;;25.25;21.00;;;;;;;;;;5006813;28;20028;-74
2023/12/19 09:51:42;;;;;;;24.08;20.85;;;;;;;;;;5007678;28;20040;-76
2023/12/19 09:54:07;;;;;;;39.92;30.80;;;;;;;;;;5005077;28;20098;-75
2023/12/19 09:56:33;;;;;;;12.63;10.88;;;;;;;;;;5006501;28;21319;-77
2023/12/19 09:59:02;;;;;;;28.15;23.98;;;;;;;;;;4995803;28;20084;-72
2023/12/19 10:01:28;;;;;;;34.10;30.45;;;;;;;;;;5009366;28;20044;-74
2023/12/19 10:03:55;;;;;;;25.25;22.55;;;;;;;;;;5004056;28;20513;-78
2023/12/19 10:06:21;;;;;;;23.85;21.35;;;;;;;;;;5012815;28;20037;-76
2023/12/19 10:08:47;;;;;;;30.00;26.75;;;;;;;;;;5011541;28;20053;-75
2023/12/19 10:11:17;;;;;;;14.90;13.40;;;;;;;;;;5005998;28;20091;-75
2023/12/19 10:13:43;;;;;;;28.48;25.50;;;;;;;;;;5008000;28;20026;-75
2023/12/19 10:16:09;;;;;;;75.18;64.57;;;;;;;;;;5012773;28;20039;-77
2023/12/19 10:18:36;;;;;;;37.58;33.60;;;;;;;;;;5007889;28;20123;-74
2023/12/19 10:21:08;;;;;;;24.30;18.05;;;;;;;;;;5011221;28;20479;-75
2023/12/19 10:23:34;;;;;;;35.70;32.08;;;;;;;;;;5004135;28;20021;-77
2023/12/19 10:25:59;;;;;;;32.20;25.02;;;;;;;;;;5011030;28;20036;-79
2023/12/19 10:28:24;;;;;;;29.25;26.25;;;;;;;;;;5012369;28;20037;-77
2023/12/19 10:30:50;;;;;;;22.38;20.23;;;;;;;;;;5013500;28;20069;-76
2023/12/19 10:33:15;;;;;;;34.78;22.95;;;;;;;;;;5020983;28;20030;-77
2023/12/19 10:35:41;;;;;;;34.65;27.42;;;;;;;;;;5013732;28;20048;-78
2023/12/19 10:38:06;;;;;;;23.30;20.85;;;;;;;;;;5002187;28;20046;-75
2023/12/19 10:40:32;;;;;;;20.40;16.73;;;;;;;;;;5009445;28;20140;-76
2023/12/19 10:42:58;;;;;;;12.98;11.60;;;;;;;;;;5008615;28;21008;-76
2023/12/19 10:45:27;;;;;;;31.23;26.50;;;;;;;;;;5010320;28;20101;-77
2023/12/19 10:47:52;;;;;;;30.45;24.20;;;;;;;;;;5010824;28;20428;-75
2023/12/19 10:50:17;;;;;;;15.73;14.32;;;;;;;;;;5008222;28;20108;-74
2023/12/19 10:52:43;;;;;;;16.85;11.55;;;;;;;;;;5014389;28;20449;-76
2023/12/19 10:55:11;;;;;;;10.55;9.57;;;;;;;;;;5006226;28;20113;-73
2023/12/19 10:57:37;;;;;;;14.73;13.32;;;;;;;;;;5018982;28;20044;-74
2023/12/19 11:00:09;;;;;;;8.90;8.10;;;;;;;;;;5007293;28;20030;-77
2023/12/19 11:02:36;;;;;;;10.25;9.35;;;;;;;;;;5008866;28;20059;-76
2023/12/19 11:05:10;;;;;;;18.25;15.55;;;;;;;;;;5007789;28;20136;-76
2023/12/19 11:07:36;;;;;;;21.13;19.00;;;;;;;;;;5006019;28;20030;-75
2023/12/19 11:10:05;;;;;;;17.80;13.75;;;;;;;;;;5007812;28;20097;-75
2023/12/19 11:12:33;;;;;;;27.27;22.25;;;;;;;;;;5007687;28;20380;-77
2023/12/19 11:14:59;;;;;;;39.40;29.65;;;;;;;;;;5014644;28;20026;-79
2023/12/19 11:17:30;;;;;;;38.65;28.08;;;;;;;;;;5010602;28;20356;-79
2023/12/19 11:20:04;;;;;;;19.10;15.95;;;;;;;;;;5008915;28;20040;-84
2023/12/19 11:22:31;;;;;;;24.10;20.85;;;;;;;;;;5010659;28;20033;-83
2023/12/19 11:25:15;;;;;;;11.38;9.18;;;;;;;;;;5008855;28;20048;-83
2023/12/19 11:27:47;;;;;;;11.85;8.73;;;;;;;;;;5008552;28;20531;-81
2023/12/19 11:30:30;;;;;;;12.30;11.15;;;;;;;;;;5014212;28;20127;-83
2023/12/19 11:32:55;;;;;;;6.72;5.25;;;;;;;;;;5010789;28;20025;-75
2023/12/19 11:35:26;;;;;;;8.20;6.20;;;;;;;;;;5023916;28;20036;-76
2023/12/19 11:38:12;;;;;;;15.98;14.38;;;;;;;;;;5024573;28;20442;-76
2023/12/19 11:40:50;;;;;;;20.83;16.60;;;;;;;;;;5013419;28;20073;-76
2023/12/19 11:43:27;;;;;;;24.98;22.20;;;;;;;;;;5023064;28;20354;-74
2023/12/19 11:45:53;;;;;;;15.30;13.77;;;;;;;;;;5016740;28;20033;-76
2023/12/19 11:48:37;;;;;;;33.63;29.35;;;;;;;;;;5015797;28;21268;-76
2023/12/19 11:51:03;;;;;;;16.27;14.63;;;;;;;;;;5023327;28;20017;-75
2023/12/19 11:53:28;;;;;;;11.52;10.43;;;;;;;;;;5022540;28;20080;-77
2023/12/19 11:56:10;;;;;;;15.63;12.95;;;;;;;;;;5023226;28;20034;-75
2023/12/19 11:58:38;;;;;;;15.90;14.40;;;;;;;;;;5023486;28;20037;-78
2023/12/19 12:01:04;;;;;;;13.82;10.52;;;;;;;;;;5024432;28;20048;-75
2023/12/19 12:03:30;;;;;;;9.57;8.68;;;;;;;;;;5024259;28;20029;-75
2023/12/19 12:05:56;;;;;;;11.35;10.20;;;;;;;;;;5023894;28;20042;-76
2023/12/19 12:08:24;;;;;;;11.63;10.55;;;;;;;;;;5023494;28;20049;-77
2023/12/19 12:11:00;;;;;;;13.20;11.33;;;;;;;;;;5023612;28;20041;-75
2023/12/19 12:13:26;;;;;;;13.43;11.90;;;;;;;;;;5023489;28;20263;-74
2023/12/19 12:15:58;;;;;;;18.25;15.02;;;;;;;;;;5024781;28;20402;-75
2023/12/19 12:18:24;;;;;;;16.33;13.10;;;;;;;;;;5022693;28;20083;-76
2023/12/19 12:20:50;;;;;;;11.85;10.65;;;;;;;;;;5024620;28;20108;-75
2023/12/19 12:23:21;;;;;;;13.10;11.50;;;;;;;;;;5024316;28;20211;-75
2023/12/19 12:25:54;;;;;;;21.23;16.90;;;;;;;;;;5023269;28;20478;-76
2023/12/19 12:28:21;;;;;;;11.98;9.82;;;;;;;;;;5023489;28;20103;-75
2023/12/19 12:30:46;;;;;;;10.25;9.15;;;;;;;;;;5023351;28;20393;-75
2023/12/19 12:33:12;;;;;;;35.85;32.30;;;;;;;;;;5015610;28;20108;-76
2023/12/19 12:35:38;;;;;;;36.47;32.05;;;;;;;;;;5019856;28;20029;-77
2023/12/19 12:38:10;;;;;;;29.70;26.65;;;;;;;;;;5024021;28;20379;-75
2023/12/19 12:40:36;;;;;;;17.73;15.30;;;;;;;;;;5021823;28;20186;-76
2023/12/19 12:43:20;;;;;;;31.95;28.38;;;;;;;;;;5011575;28;20112;-78
2023/12/19 12:45:45;;;;;;;23.52;20.13;;;;;;;;;;5022506;28;20461;-77
2023/12/19 12:48:12;;;;;;;37.78;24.35;;;;;;;;;;5022683;28;20079;-76
2023/12/19 12:50:37;;;;;;;24.95;20.88;;;;;;;;;;5022857;28;20043;-75
2023/12/19 12:53:02;;;;;;;27.58;21.52;;;;;;;;;;5023195;28;20112;-77
2023/12/19 12:55:28;;;;;;;26.35;19.80;;;;;;;;;;5023059;28;20017;-77
2023/12/19 12:58:00;;;;;;;26.88;16.38;;;;;;;;;;5022961;28;20036;-76
2023/12/19 13:00:25;;;;;;;10.68;9.48;;;;;;;;;;5021603;28;20387;-76
2023/12/19 13:02:51;;;;;;;9.85;8.85;;;;;;;;;;5021947;28;20022;-79
2023/12/19 13:05:16;;;;;;;9.48;8.50;;;;;;;;;;5022335;28;20733;-74
2023/12/19 13:07:42;;;;;;;11.50;9.07;;;;;;;;;;5022702;28;20033;-75
2023/12/19 13:10:08;;;;;;;27.73;19.77;;;;;;;;;;5022203;28;20030;-74
2023/12/19 13:12:33;;;;;;;10.25;8.82;;;;;;;;;;5022835;28;20437;-74
2023/12/19 13:14:58;;;;;;;18.70;16.70;;;;;;;;;;5021913;28;20130;-75
2023/12/19 13:17:24;;;;;;;43.47;38.80;;;;;;;;;;5022345;28;20025;-76
2023/12/19 13:19:49;;;;;;;56.75;39.40;;;;;;;;;;5022073;28;20029;-75
2023/12/19 13:22:15;;;;;;;47.72;36.67;;;;;;;;;;5022505;28;20053;-75
2023/12/19 13:24:40;;;;;;;32.25;25.25;;;;;;;;;;5021905;28;20021;-76
2023/12/19 13:27:05;;;;;;;20.52;15.00;;;;;;;;;;5022266;28;20163;-75
2023/12/19 13:29:31;;;;;;;17.30;12.85;;;;;;;;;;5022428;28;20060;-75
2023/12/19 13:31:57;;;;;;;29.17;21.60;;;;;;;;;;5022546;28;20040;-72
2023/12/19 13:34:25;;;;;;;37.78;28.00;;;;;;;;;;5022230;28;20092;-74
2023/12/19 13:36:50;;;;;;;27.88;18.95;;;;;;;;;;5021988;28;20045;-74
2023/12/19 13:39:20;;;;;;;49.42;32.35;;;;;;;;;;5022055;28;20436;-75
2023/12/19 13:41:45;;;;;;;42.80;31.00;;;;;;;;;;5021660;28;20033;-77
2023/12/19 13:44:11;;;;;;;42.20;27.38;;;;;;;;;;5021568;28;20029;-76
2023/12/19 13:46:36;;;;;;;55.92;39.13;;;;;;;;;;5022275;28;20600;-77
2023/12/19 13:49:01;;;;;;;45.63;30.73;;;;;;;;;;5022169;28;20919;-76
2023/12/19 13:51:26;;;;;;;50.67;33.20;;;;;;;;;;5021685;28;20344;-73
2023/12/19 13:53:52;;;;;;;62.75;46.58;;;;;;;;;;5021782;28;20036;-76
2023/12/19 13:56:19;;;;;;;44.00;29.77;;;;;;;;;;5021377;28;20040;-73
2023/12/19 13:58:45;;;;;;;110.72;70.65;;;;;;;;;;5021346;28;20025;-74
2023/12/19 14:01:10;;;;;;;119.38;70.10;;;;;;;;;;5021952;28;20156;-78
2023/12/19 14:03:38;;;;;;;50.17;28.77;;;;;;;;;;5021867;28;20048;-75
2023/12/19 14:06:03;;;;;;;35.53;24.95;;;;;;;;;;5021480;28;20437;-75